sensor_id;sensor_type;location;lat;lon;timestamp;P1;durP1;ratioP1;P2;durP2;ratioP2
4244;SDS011;2136;48.502;9.194;2023-04-03T00:00:22;3.07;;;2.83;;
4244;SDS011;2136;48.502;9.194;2023-04-03T00:02:49;4.80;;;3.47;;
4244;SDS011;2136;48.502;9.194;2023-04-03T00:05:16;3.17;;;2.87;;
4244;SDS011;2136;48.502;9.194;2023-04-03T00:07:43;3.50;;;3.20;;
4244;SDS011;2136;48.502;9.194;2023-04-03T00:10:10;4.50;;;2.80;;
4244;SDS011;2136;48.502;9.194;2023-04-03T00:12:37;2.93;;;2.70;;
4244;SDS011;2136;48.502;9.194;2023-04-03T00:15:04;3.63;;;3.33;;
4244;SDS011;2136;48.502;9.194;2023-04-03T00:17:33;3.50;;;3.20;;
4244;SDS011;2136;48.502;9.194;2023-04-03T00:20:01;3.80;;;3.10;;
4244;SDS011;2136;48.502;9.194;2023-04-03T00:22:28;4.13;;;3.00;;
4244;SDS011;2136;48.502;9.194;2023-04-03T00:24:55;2.87;;;2.77;;
4244;SDS011;2136;48.502;9.194;2023-04-03T00:27:22;15.20;;;2.87;;
4244;SDS011;2136;48.502;9.194;2023-04-03T00:29:49;3.83;;;3.47;;
4244;SDS011;2136;48.502;9.194;2023-04-03T00:32:15;3.60;;;3.40;;
4244;SDS011;2136;48.502;9.194;2023-04-03T00:34:44;5.13;;;3.13;;
4244;SDS011;2136;48.502;9.194;2023-04-03T00:37:10;3.37;;;3.10;;
4244;SDS011;2136;48.502;9.194;2023-04-03T00:39:37;5.80;;;3.33;;
4244;SDS011;2136;48.502;9.194;2023-04-03T00:42:05;3.87;;;3.60;;
4244;SDS011;2136;48.502;9.194;2023-04-03T00:47:38;2.77;;;2.50;;
4244;SDS011;2136;48.502;9.194;2023-04-03T00:50:08;5.93;;;3.37;;
4244;SDS011;2136;48.502;9.194;2023-04-03T00:52:35;5.30;;;3.40;;
4244;SDS011;2136;48.502;9.194;2023-04-03T00:55:05;6.10;;;3.37;;
4244;SDS011;2136;48.502;9.194;2023-04-03T00:57:34;3.13;;;2.93;;
4244;SDS011;2136;48.502;9.194;2023-04-03T01:00:02;5.10;;;3.40;;
4244;SDS011;2136;48.502;9.194;2023-04-03T01:02:34;3.30;;;3.00;;
4244;SDS011;2136;48.502;9.194;2023-04-03T01:05:01;5.03;;;3.60;;
4244;SDS011;2136;48.502;9.194;2023-04-03T01:07:30;3.33;;;3.00;;
4244;SDS011;2136;48.502;9.194;2023-04-03T01:09:59;3.77;;;3.47;;
4244;SDS011;2136;48.502;9.194;2023-04-03T01:12:29;3.20;;;3.00;;
4244;SDS011;2136;48.502;9.194;2023-04-03T01:14:58;5.00;;;3.67;;
4244;SDS011;2136;48.502;9.194;2023-04-03T01:17:27;6.17;;;3.40;;
4244;SDS011;2136;48.502;9.194;2023-04-03T01:19:58;4.23;;;3.50;;
4244;SDS011;2136;48.502;9.194;2023-04-03T01:23:04;4.70;;;3.43;;
4244;SDS011;2136;48.502;9.194;2023-04-03T01:25:40;4.30;;;3.90;;
4244;SDS011;2136;48.502;9.194;2023-04-03T01:28:09;3.30;;;3.00;;
4244;SDS011;2136;48.502;9.194;2023-04-03T01:30:39;4.10;;;3.70;;
4244;SDS011;2136;48.502;9.194;2023-04-03T01:33:11;4.57;;;2.90;;
4244;SDS011;2136;48.502;9.194;2023-04-03T01:35:38;4.23;;;3.77;;
4244;SDS011;2136;48.502;9.194;2023-04-03T01:38:05;3.20;;;2.90;;
4244;SDS011;2136;48.502;9.194;2023-04-03T01:40:32;3.33;;;3.03;;
4244;SDS011;2136;48.502;9.194;2023-04-03T01:42:59;3.83;;;3.40;;
4244;SDS011;2136;48.502;9.194;2023-04-03T01:45:26;3.07;;;2.83;;
4244;SDS011;2136;48.502;9.194;2023-04-03T01:47:53;3.70;;;3.47;;
4244;SDS011;2136;48.502;9.194;2023-04-03T01:50:21;4.25;;;3.40;;
4244;SDS011;2136;48.502;9.194;2023-04-03T01:52:48;3.63;;;3.33;;
4244;SDS011;2136;48.502;9.194;2023-04-03T01:55:15;4.93;;;3.63;;
4244;SDS011;2136;48.502;9.194;2023-04-03T01:57:42;4.03;;;3.30;;
4244;SDS011;2136;48.502;9.194;2023-04-03T02:00:09;6.47;;;3.87;;
4244;SDS011;2136;48.502;9.194;2023-04-03T02:02:37;3.60;;;3.20;;
4244;SDS011;2136;48.502;9.194;2023-04-03T02:05:04;3.57;;;3.27;;
4244;SDS011;2136;48.502;9.194;2023-04-03T02:07:32;3.43;;;3.13;;
4244;SDS011;2136;48.502;9.194;2023-04-03T02:09:59;8.60;;;4.23;;
4244;SDS011;2136;48.502;9.194;2023-04-03T02:12:26;3.70;;;3.40;;
4244;SDS011;2136;48.502;9.194;2023-04-03T02:14:53;2.87;;;2.70;;
4244;SDS011;2136;48.502;9.194;2023-04-03T02:17:20;3.90;;;3.60;;
4244;SDS011;2136;48.502;9.194;2023-04-03T02:19:46;3.07;;;2.83;;
4244;SDS011;2136;48.502;9.194;2023-04-03T02:22:13;5.57;;;3.97;;
4244;SDS011;2136;48.502;9.194;2023-04-03T02:24:41;3.50;;;3.20;;
4244;SDS011;2136;48.502;9.194;2023-04-03T02:27:09;4.53;;;3.90;;
4244;SDS011;2136;48.502;9.194;2023-04-03T02:29:36;4.07;;;3.47;;
4244;SDS011;2136;48.502;9.194;2023-04-03T02:32:03;3.57;;;3.30;;
4244;SDS011;2136;48.502;9.194;2023-04-03T02:34:30;5.13;;;4.10;;
4244;SDS011;2136;48.502;9.194;2023-04-03T02:36:57;4.53;;;3.90;;
4244;SDS011;2136;48.502;9.194;2023-04-03T02:39:24;3.30;;;3.00;;
4244;SDS011;2136;48.502;9.194;2023-04-03T02:41:52;7.00;;;4.00;;
4244;SDS011;2136;48.502;9.194;2023-04-03T02:44:19;3.63;;;2.93;;
4244;SDS011;2136;48.502;9.194;2023-04-03T02:46:46;4.63;;;3.80;;
4244;SDS011;2136;48.502;9.194;2023-04-03T02:49:13;5.00;;;3.47;;
4244;SDS011;2136;48.502;9.194;2023-04-03T02:51:40;6.13;;;4.20;;
4244;SDS011;2136;48.502;9.194;2023-04-03T02:54:07;3.60;;;3.30;;
4244;SDS011;2136;48.502;9.194;2023-04-03T02:56:34;3.77;;;3.47;;
4244;SDS011;2136;48.502;9.194;2023-04-03T02:59:02;3.60;;;3.30;;
4244;SDS011;2136;48.502;9.194;2023-04-03T03:01:30;3.83;;;3.37;;
4244;SDS011;2136;48.502;9.194;2023-04-03T03:03:57;4.47;;;3.43;;
4244;SDS011;2136;48.502;9.194;2023-04-03T03:06:24;4.57;;;3.33;;
4244;SDS011;2136;48.502;9.194;2023-04-03T03:08:51;5.90;;;3.50;;
4244;SDS011;2136;48.502;9.194;2023-04-03T03:11:18;11.47;;;4.40;;
4244;SDS011;2136;48.502;9.194;2023-04-03T03:13:46;4.60;;;3.60;;
4244;SDS011;2136;48.502;9.194;2023-04-03T03:16:14;4.67;;;4.17;;
4244;SDS011;2136;48.502;9.194;2023-04-03T03:18:41;4.57;;;4.17;;
4244;SDS011;2136;48.502;9.194;2023-04-03T03:21:08;4.23;;;3.80;;
4244;SDS011;2136;48.502;9.194;2023-04-03T03:23:36;4.30;;;3.90;;
4244;SDS011;2136;48.502;9.194;2023-04-03T03:26:04;6.07;;;3.63;;
4244;SDS011;2136;48.502;9.194;2023-04-03T03:28:32;4.13;;;3.73;;
4244;SDS011;2136;48.502;9.194;2023-04-03T03:30:59;4.47;;;3.90;;
4244;SDS011;2136;48.502;9.194;2023-04-03T03:33:28;6.07;;;4.43;;
4244;SDS011;2136;48.502;9.194;2023-04-03T03:35:55;3.40;;;3.00;;
4244;SDS011;2136;48.502;9.194;2023-04-03T03:38:22;3.87;;;3.40;;
4244;SDS011;2136;48.502;9.194;2023-04-03T03:40:50;9.33;;;3.87;;
4244;SDS011;2136;48.502;9.194;2023-04-03T03:43:17;4.50;;;3.63;;
4244;SDS011;2136;48.502;9.194;2023-04-03T03:45:45;5.97;;;3.80;;
4244;SDS011;2136;48.502;9.194;2023-04-03T03:48:17;4.07;;;3.67;;
4244;SDS011;2136;48.502;9.194;2023-04-03T03:50:45;4.90;;;4.37;;
4244;SDS011;2136;48.502;9.194;2023-04-03T03:53:12;8.93;;;4.17;;
4244;SDS011;2136;48.502;9.194;2023-04-03T03:55:39;7.13;;;4.47;;
4244;SDS011;2136;48.502;9.194;2023-04-03T03:58:06;9.23;;;5.87;;
4244;SDS011;2136;48.502;9.194;2023-04-03T04:00:33;6.77;;;5.30;;
4244;SDS011;2136;48.502;9.194;2023-04-03T04:03:01;9.33;;;5.43;;
4244;SDS011;2136;48.502;9.194;2023-04-03T04:05:27;4.33;;;3.93;;
4244;SDS011;2136;48.502;9.194;2023-04-03T04:07:56;8.83;;;4.27;;
4244;SDS011;2136;48.502;9.194;2023-04-03T04:10:23;9.13;;;5.90;;
4244;SDS011;2136;48.502;9.194;2023-04-03T04:12:50;5.87;;;4.03;;
4244;SDS011;2136;48.502;9.194;2023-04-03T04:15:17;3.97;;;3.57;;
4244;SDS011;2136;48.502;9.194;2023-04-03T04:17:46;6.67;;;4.00;;
4244;SDS011;2136;48.502;9.194;2023-04-03T04:20:13;2.87;;;2.67;;
4244;SDS011;2136;48.502;9.194;2023-04-03T04:22:40;5.07;;;4.67;;
4244;SDS011;2136;48.502;9.194;2023-04-03T04:25:08;4.00;;;3.70;;
4244;SDS011;2136;48.502;9.194;2023-04-03T04:27:35;6.83;;;4.53;;
4244;SDS011;2136;48.502;9.194;2023-04-03T04:30:03;4.77;;;3.73;;
4244;SDS011;2136;48.502;9.194;2023-04-03T04:32:31;3.87;;;3.57;;
4244;SDS011;2136;48.502;9.194;2023-04-03T04:34:58;4.47;;;4.13;;
4244;SDS011;2136;48.502;9.194;2023-04-03T04:37:25;4.40;;;4.00;;
4244;SDS011;2136;48.502;9.194;2023-04-03T04:39:52;3.80;;;3.47;;
4244;SDS011;2136;48.502;9.194;2023-04-03T04:42:20;3.73;;;3.40;;
4244;SDS011;2136;48.502;9.194;2023-04-03T04:44:47;5.97;;;4.23;;
4244;SDS011;2136;48.502;9.194;2023-04-03T04:47:14;3.93;;;3.53;;
4244;SDS011;2136;48.502;9.194;2023-04-03T04:49:41;3.80;;;3.47;;
4244;SDS011;2136;48.502;9.194;2023-04-03T04:52:08;3.80;;;3.50;;
4244;SDS011;2136;48.502;9.194;2023-04-03T04:54:35;5.43;;;4.77;;
4244;SDS011;2136;48.502;9.194;2023-04-03T04:57:02;4.33;;;3.10;;
4244;SDS011;2136;48.502;9.194;2023-04-03T04:59:30;5.20;;;3.97;;
4244;SDS011;2136;48.502;9.194;2023-04-03T05:01:57;4.90;;;3.27;;
4244;SDS011;2136;48.502;9.194;2023-04-03T05:04:23;4.13;;;3.83;;
4244;SDS011;2136;48.502;9.194;2023-04-03T05:06:50;8.70;;;4.53;;
4244;SDS011;2136;48.502;9.194;2023-04-03T05:09:17;4.37;;;3.90;;
4244;SDS011;2136;48.502;9.194;2023-04-03T05:11:45;7.40;;;4.10;;
4244;SDS011;2136;48.502;9.194;2023-04-03T05:14:12;7.90;;;4.50;;
4244;SDS011;2136;48.502;9.194;2023-04-03T05:16:40;8.40;;;3.90;;
4244;SDS011;2136;48.502;9.194;2023-04-03T05:19:07;4.83;;;3.63;;
4244;SDS011;2136;48.502;9.194;2023-04-03T05:21:34;8.40;;;4.10;;
4244;SDS011;2136;48.502;9.194;2023-04-03T05:24:00;6.43;;;4.37;;
4244;SDS011;2136;48.502;9.194;2023-04-03T05:26:28;4.43;;;3.90;;
4244;SDS011;2136;48.502;9.194;2023-04-03T05:28:55;4.40;;;3.73;;
4244;SDS011;2136;48.502;9.194;2023-04-03T05:31:22;8.57;;;5.20;;
4244;SDS011;2136;48.502;9.194;2023-04-03T05:33:50;7.27;;;4.30;;
4244;SDS011;2136;48.502;9.194;2023-04-03T05:36:17;7.43;;;3.67;;
4244;SDS011;2136;48.502;9.194;2023-04-03T05:38:44;4.50;;;3.67;;
4244;SDS011;2136;48.502;9.194;2023-04-03T05:41:11;3.80;;;3.50;;
4244;SDS011;2136;48.502;9.194;2023-04-03T05:43:38;3.57;;;2.77;;
4244;SDS011;2136;48.502;9.194;2023-04-03T05:46:08;3.60;;;3.30;;
4244;SDS011;2136;48.502;9.194;2023-04-03T05:48:36;4.03;;;3.37;;
4244;SDS011;2136;48.502;9.194;2023-04-03T05:51:04;3.60;;;3.30;;
4244;SDS011;2136;48.502;9.194;2023-04-03T05:53:33;4.17;;;2.80;;
4244;SDS011;2136;48.502;9.194;2023-04-03T05:56:02;3.70;;;3.27;;
4244;SDS011;2136;48.502;9.194;2023-04-03T05:58:29;3.47;;;3.00;;
4244;SDS011;2136;48.502;9.194;2023-04-03T06:00:56;3.10;;;2.90;;
4244;SDS011;2136;48.502;9.194;2023-04-03T06:03:23;6.20;;;3.03;;
4244;SDS011;2136;48.502;9.194;2023-04-03T06:05:50;5.13;;;3.27;;
4244;SDS011;2136;48.502;9.194;2023-04-03T06:08:19;5.10;;;3.10;;
4244;SDS011;2136;48.502;9.194;2023-04-03T06:10:45;3.47;;;3.17;;
4244;SDS011;2136;48.502;9.194;2023-04-03T06:13:12;4.57;;;2.90;;
4244;SDS011;2136;48.502;9.194;2023-04-03T06:15:40;3.70;;;2.60;;
4244;SDS011;2136;48.502;9.194;2023-04-03T06:18:06;10.90;;;3.03;;
4244;SDS011;2136;48.502;9.194;2023-04-03T06:20:34;3.40;;;2.60;;
4244;SDS011;2136;48.502;9.194;2023-04-03T06:23:00;6.30;;;3.10;;
4244;SDS011;2136;48.502;9.194;2023-04-03T06:25:29;3.83;;;3.23;;
4244;SDS011;2136;48.502;9.194;2023-04-03T06:27:56;4.23;;;2.63;;
4244;SDS011;2136;48.502;9.194;2023-04-03T06:30:23;2.60;;;2.40;;
4244;SDS011;2136;48.502;9.194;2023-04-03T06:32:50;4.73;;;2.37;;
4244;SDS011;2136;48.502;9.194;2023-04-03T06:35:17;5.00;;;3.13;;
4244;SDS011;2136;48.502;9.194;2023-04-03T06:37:44;3.93;;;2.77;;
4244;SDS011;2136;48.502;9.194;2023-04-03T06:40:13;4.30;;;3.07;;
4244;SDS011;2136;48.502;9.194;2023-04-03T06:42:46;4.10;;;3.17;;
4244;SDS011;2136;48.502;9.194;2023-04-03T06:45:14;2.93;;;2.63;;
4244;SDS011;2136;48.502;9.194;2023-04-03T06:47:40;3.80;;;3.30;;
4244;SDS011;2136;48.502;9.194;2023-04-03T06:50:08;3.13;;;2.83;;
4244;SDS011;2136;48.502;9.194;2023-04-03T06:52:36;2.70;;;2.50;;
4244;SDS011;2136;48.502;9.194;2023-04-03T06:55:05;2.87;;;2.27;;
4244;SDS011;2136;48.502;9.194;2023-04-03T06:57:32;3.00;;;2.40;;
4244;SDS011;2136;48.502;9.194;2023-04-03T07:00:00;2.07;;;1.80;;
4244;SDS011;2136;48.502;9.194;2023-04-03T07:02:28;2.20;;;1.80;;
4244;SDS011;2136;48.502;9.194;2023-04-03T07:04:55;6.13;;;2.70;;
4244;SDS011;2136;48.502;9.194;2023-04-03T07:07:22;2.97;;;2.67;;
4244;SDS011;2136;48.502;9.194;2023-04-03T07:09:49;3.13;;;2.60;;
4244;SDS011;2136;48.502;9.194;2023-04-03T07:12:16;6.23;;;2.60;;
4244;SDS011;2136;48.502;9.194;2023-04-03T07:14:43;9.23;;;2.87;;
4244;SDS011;2136;48.502;9.194;2023-04-03T07:17:11;3.43;;;2.60;;
4244;SDS011;2136;48.502;9.194;2023-04-03T07:19:38;2.93;;;2.63;;
4244;SDS011;2136;48.502;9.194;2023-04-03T07:22:05;2.33;;;2.13;;
4244;SDS011;2136;48.502;9.194;2023-04-03T07:24:32;3.00;;;2.70;;
4244;SDS011;2136;48.502;9.194;2023-04-03T07:27:00;2.83;;;2.67;;
4244;SDS011;2136;48.502;9.194;2023-04-03T07:29:27;6.43;;;2.83;;
4244;SDS011;2136;48.502;9.194;2023-04-03T07:31:55;3.63;;;3.00;;
4244;SDS011;2136;48.502;9.194;2023-04-03T07:34:23;3.13;;;2.93;;
4244;SDS011;2136;48.502;9.194;2023-04-03T07:36:50;3.03;;;2.70;;
4244;SDS011;2136;48.502;9.194;2023-04-03T07:39:17;2.90;;;2.47;;
4244;SDS011;2136;48.502;9.194;2023-04-03T07:41:44;3.43;;;2.60;;
4244;SDS011;2136;48.502;9.194;2023-04-03T07:44:10;4.73;;;2.83;;
4244;SDS011;2136;48.502;9.194;2023-04-03T07:46:37;4.00;;;3.57;;
4244;SDS011;2136;48.502;9.194;2023-04-03T07:49:06;3.10;;;2.80;;
4244;SDS011;2136;48.502;9.194;2023-04-03T07:51:34;3.00;;;2.63;;
4244;SDS011;2136;48.502;9.194;2023-04-03T07:54:01;2.53;;;2.33;;
4244;SDS011;2136;48.502;9.194;2023-04-03T07:56:28;3.40;;;2.03;;
4244;SDS011;2136;48.502;9.194;2023-04-03T07:58:55;3.37;;;2.67;;
4244;SDS011;2136;48.502;9.194;2023-04-03T08:01:22;2.37;;;2.17;;
4244;SDS011;2136;48.502;9.194;2023-04-03T08:03:49;4.50;;;2.77;;
4244;SDS011;2136;48.502;9.194;2023-04-03T08:06:17;3.40;;;2.57;;
4244;SDS011;2136;48.502;9.194;2023-04-03T08:08:45;2.77;;;2.57;;
4244;SDS011;2136;48.502;9.194;2023-04-03T08:11:12;3.07;;;2.33;;
4244;SDS011;2136;48.502;9.194;2023-04-03T08:13:39;4.50;;;2.60;;
4244;SDS011;2136;48.502;9.194;2023-04-03T08:16:07;2.47;;;2.37;;
4244;SDS011;2136;48.502;9.194;2023-04-03T08:18:38;2.07;;;1.97;;
4244;SDS011;2136;48.502;9.194;2023-04-03T08:21:06;1.97;;;1.87;;
4244;SDS011;2136;48.502;9.194;2023-04-03T08:23:33;2.40;;;2.20;;
4244;SDS011;2136;48.502;9.194;2023-04-03T08:26:06;3.77;;;2.20;;
4244;SDS011;2136;48.502;9.194;2023-04-03T08:28:34;5.27;;;2.00;;
4244;SDS011;2136;48.502;9.194;2023-04-03T08:31:02;6.07;;;3.10;;
4244;SDS011;2136;48.502;9.194;2023-04-03T08:33:32;2.70;;;2.47;;
4244;SDS011;2136;48.502;9.194;2023-04-03T08:35:59;2.90;;;2.30;;
4244;SDS011;2136;48.502;9.194;2023-04-03T08:38:25;2.30;;;2.10;;
4244;SDS011;2136;48.502;9.194;2023-04-03T08:40:59;2.43;;;2.20;;
4244;SDS011;2136;48.502;9.194;2023-04-03T08:43:32;2.80;;;2.50;;
4244;SDS011;2136;48.502;9.194;2023-04-03T08:46:05;3.10;;;2.40;;
4244;SDS011;2136;48.502;9.194;2023-04-03T08:48:35;2.93;;;2.30;;
4244;SDS011;2136;48.502;9.194;2023-04-03T08:51:09;2.23;;;2.10;;
4244;SDS011;2136;48.502;9.194;2023-04-03T08:53:40;2.50;;;2.30;;
4244;SDS011;2136;48.502;9.194;2023-04-03T08:56:10;2.90;;;2.70;;
4244;SDS011;2136;48.502;9.194;2023-04-03T08:58:42;4.00;;;2.53;;
4244;SDS011;2136;48.502;9.194;2023-04-03T09:01:16;3.80;;;2.47;;
4244;SDS011;2136;48.502;9.194;2023-04-03T09:03:46;2.77;;;2.33;;
4244;SDS011;2136;48.502;9.194;2023-04-03T09:06:13;2.53;;;2.33;;
4244;SDS011;2136;48.502;9.194;2023-04-03T09:08:44;2.33;;;2.10;;
4244;SDS011;2136;48.502;9.194;2023-04-03T09:11:16;3.60;;;2.30;;
4244;SDS011;2136;48.502;9.194;2023-04-03T09:13:51;3.30;;;2.60;;
4244;SDS011;2136;48.502;9.194;2023-04-03T09:16:25;4.70;;;2.90;;
4244;SDS011;2136;48.502;9.194;2023-04-03T09:19:02;4.60;;;2.70;;
4244;SDS011;2136;48.502;9.194;2023-04-03T09:21:37;2.53;;;2.30;;
4244;SDS011;2136;48.502;9.194;2023-04-03T09:24:07;2.70;;;2.50;;
4244;SDS011;2136;48.502;9.194;2023-04-03T09:26:39;3.20;;;2.90;;
4244;SDS011;2136;48.502;9.194;2023-04-03T09:29:12;2.77;;;2.50;;
4244;SDS011;2136;48.502;9.194;2023-04-03T09:31:46;4.00;;;3.03;;
4244;SDS011;2136;48.502;9.194;2023-04-03T09:34:17;2.20;;;2.00;;
4244;SDS011;2136;48.502;9.194;2023-04-03T09:36:49;3.03;;;2.17;;
4244;SDS011;2136;48.502;9.194;2023-04-03T09:39:18;2.73;;;2.03;;
4244;SDS011;2136;48.502;9.194;2023-04-03T09:41:57;3.10;;;2.13;;
4244;SDS011;2136;48.502;9.194;2023-04-03T09:44:28;2.57;;;2.37;;
4244;SDS011;2136;48.502;9.194;2023-04-03T09:46:57;2.70;;;2.20;;
4244;SDS011;2136;48.502;9.194;2023-04-03T09:49:24;8.43;;;2.70;;
4244;SDS011;2136;48.502;9.194;2023-04-03T09:51:51;3.73;;;2.23;;
4244;SDS011;2136;48.502;9.194;2023-04-03T09:57:07;3.13;;;2.43;;
4244;SDS011;2136;48.502;9.194;2023-04-03T09:59:39;3.20;;;2.30;;
4244;SDS011;2136;48.502;9.194;2023-04-03T10:02:20;3.30;;;2.70;;
4244;SDS011;2136;48.502;9.194;2023-04-03T10:05:00;3.40;;;2.53;;
4244;SDS011;2136;48.502;9.194;2023-04-03T10:07:31;5.20;;;2.90;;
4244;SDS011;2136;48.502;9.194;2023-04-03T10:10:01;3.43;;;2.40;;
4244;SDS011;2136;48.502;9.194;2023-04-03T10:12:41;3.37;;;2.57;;
4244;SDS011;2136;48.502;9.194;2023-04-03T10:15:12;5.70;;;2.80;;
4244;SDS011;2136;48.502;9.194;2023-04-03T10:17:45;2.70;;;2.50;;
4244;SDS011;2136;48.502;9.194;2023-04-03T10:20:22;3.57;;;3.33;;
4244;SDS011;2136;48.502;9.194;2023-04-03T10:23:00;2.87;;;2.40;;
4244;SDS011;2136;48.502;9.194;2023-04-03T10:25:39;3.43;;;2.67;;
4244;SDS011;2136;48.502;9.194;2023-04-03T10:28:10;2.83;;;2.63;;
4244;SDS011;2136;48.502;9.194;2023-04-03T10:30:46;3.43;;;3.00;;
4244;SDS011;2136;48.502;9.194;2023-04-03T10:33:18;2.90;;;2.47;;
4244;SDS011;2136;48.502;9.194;2023-04-03T10:35:58;4.73;;;3.03;;
4244;SDS011;2136;48.502;9.194;2023-04-03T10:38:37;4.20;;;2.83;;
4244;SDS011;2136;48.502;9.194;2023-04-03T10:41:12;2.97;;;2.77;;
4244;SDS011;2136;48.502;9.194;2023-04-03T10:43:48;2.40;;;2.17;;
4244;SDS011;2136;48.502;9.194;2023-04-03T10:46:24;2.87;;;2.57;;
4244;SDS011;2136;48.502;9.194;2023-04-03T10:49:01;2.67;;;2.47;;
4244;SDS011;2136;48.502;9.194;2023-04-03T10:51:40;2.90;;;2.17;;
4244;SDS011;2136;48.502;9.194;2023-04-03T10:54:11;2.37;;;2.27;;
4244;SDS011;2136;48.502;9.194;2023-04-03T10:56:40;2.90;;;2.27;;
4244;SDS011;2136;48.502;9.194;2023-04-03T10:59:16;3.13;;;2.50;;
4244;SDS011;2136;48.502;9.194;2023-04-03T11:01:51;4.00;;;2.20;;
4244;SDS011;2136;48.502;9.194;2023-04-03T11:04:21;2.33;;;2.13;;
4244;SDS011;2136;48.502;9.194;2023-04-03T11:06:53;2.63;;;2.17;;
4244;SDS011;2136;48.502;9.194;2023-04-03T11:09:26;2.77;;;2.50;;
4244;SDS011;2136;48.502;9.194;2023-04-03T11:11:57;2.50;;;2.30;;
4244;SDS011;2136;48.502;9.194;2023-04-03T11:14:30;2.50;;;2.30;;
4244;SDS011;2136;48.502;9.194;2023-04-03T11:17:04;2.50;;;1.90;;
4244;SDS011;2136;48.502;9.194;2023-04-03T11:19:39;2.20;;;1.90;;
4244;SDS011;2136;48.502;9.194;2023-04-03T11:22:13;3.17;;;2.50;;
4244;SDS011;2136;48.502;9.194;2023-04-03T11:24:51;2.27;;;2.07;;
4244;SDS011;2136;48.502;9.194;2023-04-03T11:27:26;4.90;;;2.90;;
4244;SDS011;2136;48.502;9.194;2023-04-03T11:29:58;2.50;;;2.30;;
4244;SDS011;2136;48.502;9.194;2023-04-03T11:35:20;4.60;;;2.37;;
4244;SDS011;2136;48.502;9.194;2023-04-03T11:37:49;3.53;;;2.93;;
4244;SDS011;2136;48.502;9.194;2023-04-03T11:40:22;2.13;;;1.90;;
4244;SDS011;2136;48.502;9.194;2023-04-03T11:42:52;1.53;;;1.47;;
4244;SDS011;2136;48.502;9.194;2023-04-03T11:45:25;4.87;;;2.17;;
4244;SDS011;2136;48.502;9.194;2023-04-03T11:48:00;2.80;;;1.80;;
4244;SDS011;2136;48.502;9.194;2023-04-03T11:50:32;5.00;;;3.50;;
4244;SDS011;2136;48.502;9.194;2023-04-03T11:53:31;3.30;;;1.47;;
4244;SDS011;2136;48.502;9.194;2023-04-03T11:56:01;2.00;;;1.90;;
4244;SDS011;2136;48.502;9.194;2023-04-03T11:58:30;4.27;;;2.20;;
4244;SDS011;2136;48.502;9.194;2023-04-03T12:00:59;1.87;;;1.77;;
4244;SDS011;2136;48.502;9.194;2023-04-03T12:12:41;3.13;;;2.00;;
4244;SDS011;2136;48.502;9.194;2023-04-03T12:15:24;1.80;;;1.40;;
4244;SDS011;2136;48.502;9.194;2023-04-03T12:21:17;3.77;;;2.63;;
4244;SDS011;2136;48.502;9.194;2023-04-03T12:23:58;4.00;;;1.93;;
4244;SDS011;2136;48.502;9.194;2023-04-03T12:26:34;3.57;;;1.90;;
4244;SDS011;2136;48.502;9.194;2023-04-03T12:29:10;2.33;;;2.13;;
4244;SDS011;2136;48.502;9.194;2023-04-03T12:31:45;2.20;;;1.90;;
4244;SDS011;2136;48.502;9.194;2023-04-03T12:34:24;1.97;;;1.87;;
4244;SDS011;2136;48.502;9.194;2023-04-03T12:37:07;2.70;;;1.87;;
4244;SDS011;2136;48.502;9.194;2023-04-03T12:39:45;2.53;;;2.33;;
4244;SDS011;2136;48.502;9.194;2023-04-03T12:42:35;3.70;;;2.40;;
4244;SDS011;2136;48.502;9.194;2023-04-03T12:45:16;1.80;;;1.70;;
4244;SDS011;2136;48.502;9.194;2023-04-03T12:47:48;2.50;;;1.53;;
4244;SDS011;2136;48.502;9.194;2023-04-03T12:50:18;7.30;;;2.33;;
4244;SDS011;2136;48.502;9.194;2023-04-03T12:52:49;2.00;;;1.80;;
4244;SDS011;2136;48.502;9.194;2023-04-03T12:55:21;3.80;;;2.23;;
4244;SDS011;2136;48.502;9.194;2023-04-03T12:57:49;2.00;;;1.90;;
4244;SDS011;2136;48.502;9.194;2023-04-03T13:03:05;4.47;;;2.53;;
4244;SDS011;2136;48.502;9.194;2023-04-03T13:05:41;5.13;;;2.33;;
4244;SDS011;2136;48.502;9.194;2023-04-03T13:08:12;4.30;;;1.93;;
4244;SDS011;2136;48.502;9.194;2023-04-03T13:10:43;2.17;;;1.97;;
4244;SDS011;2136;48.502;9.194;2023-04-03T13:13:20;3.03;;;2.07;;
4244;SDS011;2136;48.502;9.194;2023-04-03T13:15:48;3.33;;;2.17;;
4244;SDS011;2136;48.502;9.194;2023-04-03T13:18:23;1.70;;;1.60;;
4244;SDS011;2136;48.502;9.194;2023-04-03T13:20:51;2.97;;;2.10;;
4244;SDS011;2136;48.502;9.194;2023-04-03T13:23:22;2.30;;;1.67;;
4244;SDS011;2136;48.502;9.194;2023-04-03T13:25:49;3.83;;;1.67;;
4244;SDS011;2136;48.502;9.194;2023-04-03T13:28:18;3.70;;;1.50;;
4244;SDS011;2136;48.502;9.194;2023-04-03T13:30:55;1.87;;;1.77;;
4244;SDS011;2136;48.502;9.194;2023-04-03T13:33:27;4.90;;;2.30;;
4244;SDS011;2136;48.502;9.194;2023-04-03T13:35:57;2.77;;;2.47;;
4244;SDS011;2136;48.502;9.194;2023-04-03T13:38:26;5.63;;;3.27;;
4244;SDS011;2136;48.502;9.194;2023-04-03T13:40:58;31.80;;;2.47;;
4244;SDS011;2136;48.502;9.194;2023-04-03T13:43:29;5.87;;;2.77;;
4244;SDS011;2136;48.502;9.194;2023-04-03T13:46:00;2.20;;;1.77;;
4244;SDS011;2136;48.502;9.194;2023-04-03T13:48:34;2.50;;;2.30;;
4244;SDS011;2136;48.502;9.194;2023-04-03T13:51:03;6.07;;;2.33;;
4244;SDS011;2136;48.502;9.194;2023-04-03T13:53:33;6.00;;;2.27;;
4244;SDS011;2136;48.502;9.194;2023-04-03T13:56:09;2.33;;;2.10;;
4244;SDS011;2136;48.502;9.194;2023-04-03T13:58:52;3.07;;;2.37;;
4244;SDS011;2136;48.502;9.194;2023-04-03T14:01:24;2.13;;;1.93;;
4244;SDS011;2136;48.502;9.194;2023-04-03T14:03:53;2.90;;;2.30;;
4244;SDS011;2136;48.502;9.194;2023-04-03T14:06:21;3.10;;;2.87;;
4244;SDS011;2136;48.502;9.194;2023-04-03T14:08:49;2.40;;;2.20;;
4244;SDS011;2136;48.502;9.194;2023-04-03T14:11:17;2.70;;;2.00;;
4244;SDS011;2136;48.502;9.194;2023-04-03T14:13:47;2.00;;;1.80;;
4244;SDS011;2136;48.502;9.194;2023-04-03T14:16:18;2.63;;;2.37;;
4244;SDS011;2136;48.502;9.194;2023-04-03T14:18:46;2.27;;;2.00;;
4244;SDS011;2136;48.502;9.194;2023-04-03T14:21:15;2.07;;;1.80;;
4244;SDS011;2136;48.502;9.194;2023-04-03T14:23:43;2.73;;;2.00;;
4244;SDS011;2136;48.502;9.194;2023-04-03T14:26:12;4.20;;;2.17;;
4244;SDS011;2136;48.502;9.194;2023-04-03T14:28:41;2.53;;;1.90;;
4244;SDS011;2136;48.502;9.194;2023-04-03T14:31:10;3.90;;;2.50;;
4244;SDS011;2136;48.502;9.194;2023-04-03T14:33:38;2.30;;;2.10;;
4244;SDS011;2136;48.502;9.194;2023-04-03T14:36:10;1.90;;;1.77;;
4244;SDS011;2136;48.502;9.194;2023-04-03T14:38:39;2.07;;;1.77;;
4244;SDS011;2136;48.502;9.194;2023-04-03T14:41:06;6.80;;;2.47;;
4244;SDS011;2136;48.502;9.194;2023-04-03T14:43:33;2.23;;;2.00;;
4244;SDS011;2136;48.502;9.194;2023-04-03T14:46:00;4.93;;;2.10;;
4244;SDS011;2136;48.502;9.194;2023-04-03T14:48:27;3.07;;;2.20;;
4244;SDS011;2136;48.502;9.194;2023-04-03T14:50:57;2.33;;;2.10;;
4244;SDS011;2136;48.502;9.194;2023-04-03T14:53:24;3.83;;;2.10;;
4244;SDS011;2136;48.502;9.194;2023-04-03T14:55:51;4.20;;;2.53;;
4244;SDS011;2136;48.502;9.194;2023-04-03T14:58:19;2.43;;;2.00;;
4244;SDS011;2136;48.502;9.194;2023-04-03T15:00:46;7.73;;;2.70;;
4244;SDS011;2136;48.502;9.194;2023-04-03T15:03:14;4.87;;;2.73;;
4244;SDS011;2136;48.502;9.194;2023-04-03T15:05:42;2.50;;;2.03;;
4244;SDS011;2136;48.502;9.194;2023-04-03T15:08:18;3.27;;;1.80;;
4244;SDS011;2136;48.502;9.194;2023-04-03T15:10:47;5.23;;;2.10;;
4244;SDS011;2136;48.502;9.194;2023-04-03T15:13:14;4.60;;;3.17;;
4244;SDS011;2136;48.502;9.194;2023-04-03T15:15:42;3.43;;;2.07;;
4244;SDS011;2136;48.502;9.194;2023-04-03T15:18:10;3.90;;;2.47;;
4244;SDS011;2136;48.502;9.194;2023-04-03T15:20:41;3.07;;;1.97;;
4244;SDS011;2136;48.502;9.194;2023-04-03T15:23:08;2.60;;;1.70;;
4244;SDS011;2136;48.502;9.194;2023-04-03T15:25:38;2.50;;;2.20;;
4244;SDS011;2136;48.502;9.194;2023-04-03T15:28:05;2.03;;;1.93;;
4244;SDS011;2136;48.502;9.194;2023-04-03T15:30:35;6.10;;;2.13;;
4244;SDS011;2136;48.502;9.194;2023-04-03T15:33:04;2.30;;;1.93;;
4244;SDS011;2136;48.502;9.194;2023-04-03T15:35:31;2.50;;;2.30;;
4244;SDS011;2136;48.502;9.194;2023-04-03T15:37:58;4.17;;;2.80;;
4244;SDS011;2136;48.502;9.194;2023-04-03T15:40:25;2.97;;;2.70;;
4244;SDS011;2136;48.502;9.194;2023-04-03T15:42:53;2.77;;;2.20;;
4244;SDS011;2136;48.502;9.194;2023-04-03T15:45:20;7.73;;;2.17;;
4244;SDS011;2136;48.502;9.194;2023-04-03T15:47:47;4.50;;;2.50;;
4244;SDS011;2136;48.502;9.194;2023-04-03T15:50:15;2.60;;;2.40;;
4244;SDS011;2136;48.502;9.194;2023-04-03T15:52:42;2.50;;;2.30;;